createdAt,value
2019-01-25T00:01:12.990Z,92.33
2019-01-25T00:03:46.675Z,91.60
2019-01-25T00:06:22.499Z,91.68
2019-01-25T00:08:55.624Z,91.00
2019-01-25T00:11:29.280Z,90.77
2019-01-25T00:14:02.011Z,91.05
2019-01-25T00:16:35.025Z,89.60
2019-01-25T00:19:08.431Z,88.81
2019-01-25T00:21:41.817Z,88.98
2019-01-25T00:24:15.095Z,88.30
2019-01-25T00:26:47.713Z,87.88
2019-01-25T00:29:20.837Z,88.18
2019-01-25T00:31:54.148Z,88.12
2019-01-25T00:34:27.151Z,88.36
2019-01-25T00:37:00.442Z,88.56
2019-01-25T00:39:33.831Z,87.96
2019-01-25T00:42:07.008Z,87.99
2019-01-25T00:44:40.107Z,87.88
2019-01-25T00:47:13.118Z,86.24
2019-01-25T00:49:46.008Z,87.26
2019-01-25T00:52:18.608Z,86.61
2019-01-25T00:54:52.478Z,86.41
2019-01-25T00:57:26.608Z,87.15
2019-01-25T00:59:59.591Z,86.36
2019-01-25T01:02:32.650Z,84.93
2019-01-25T01:05:06.505Z,84.62
2019-01-25T01:07:39.579Z,84.46
2019-01-25T01:10:14.262Z,85.92
2019-01-25T01:12:48.551Z,86.83
2019-01-25T01:15:22.319Z,86.82
2019-01-25T01:17:55.821Z,83.55
2019-01-25T01:20:28.820Z,84.25
2019-01-25T01:23:01.069Z,85.66
2019-01-25T01:25:34.574Z,86.50
2019-01-25T01:28:07.659Z,84.99
2019-01-25T01:30:41.511Z,84.13
2019-01-25T01:33:14.893Z,83.98
2019-01-25T01:35:48.652Z,83.13
2019-01-25T01:38:21.644Z,82.59
2019-01-25T01:40:57.521Z,82.27
2019-01-25T01:43:31.013Z,82.99
2019-01-25T01:46:04.408Z,81.48
2019-01-25T01:48:37.993Z,81.19
2019-01-25T01:51:10.691Z,81.43
2019-01-25T01:53:43.408Z,81.82
2019-01-25T01:56:15.970Z,82.17
2019-01-25T01:58:49.150Z,80.49
2019-01-25T02:01:22.990Z,83.15
2019-01-25T02:03:56.025Z,84.31
2019-01-25T02:06:29.930Z,84.66
2019-01-25T02:09:04.567Z,84.11
2019-01-25T02:11:40.295Z,84.80
2019-01-25T02:14:13.502Z,83.58
2019-01-25T02:16:46.824Z,82.25
2019-01-25T02:19:19.986Z,81.82
2019-01-25T02:21:53.705Z,83.05
2019-01-25T02:24:26.708Z,83.69
2019-01-25T02:27:00.052Z,83.59
2019-01-25T02:29:33.098Z,84.51
2019-01-25T02:32:06.288Z,83.50
2019-01-25T02:34:39.381Z,83.29
2019-01-25T02:37:11.968Z,82.87
2019-01-25T02:39:45.268Z,83.79
2019-01-25T02:42:19.516Z,84.70
2019-01-25T02:44:52.640Z,83.96
2019-01-25T02:47:25.845Z,85.18
2019-01-25T02:49:59.655Z,85.12
2019-01-25T02:52:32.931Z,85.65
2019-01-25T02:55:08.140Z,84.79
2019-01-25T02:57:41.171Z,85.01
2019-01-25T03:00:19.368Z,85.18
2019-01-25T03:02:52.762Z,84.63
2019-01-25T03:05:25.541Z,84.96
2019-01-25T03:07:59.367Z,84.63
2019-01-25T03:10:31.975Z,83.51
2019-01-25T03:13:04.154Z,84.27
2019-01-25T03:15:37.546Z,85.46
2019-01-25T03:18:10.504Z,84.76
2019-01-25T03:20:43.509Z,83.87
2019-01-25T03:23:16.887Z,83.74
2019-01-25T03:25:50.181Z,82.37
2019-01-25T03:28:23.151Z,83.49
2019-01-25T03:30:57.458Z,84.14
2019-01-25T03:33:30.804Z,84.60
2019-01-25T03:36:04.139Z,84.37
2019-01-25T03:38:37.322Z,84.52
2019-01-25T03:41:10.406Z,82.95
2019-01-25T03:43:43.714Z,81.92
2019-01-25T03:46:16.296Z,82.06
2019-01-25T03:48:49.314Z,81.76
2019-01-25T03:51:22.611Z,82.52
2019-01-25T03:53:55.216Z,83.32
2019-01-25T03:56:29.104Z,82.29
2019-01-25T03:59:02.949Z,83.11
2019-01-25T04:01:36.505Z,83.68
2019-01-25T04:04:09.990Z,82.76
2019-01-25T04:06:43.400Z,82.82
2019-01-25T04:09:17.202Z,83.77
2019-01-25T04:11:50.211Z,84.54
2019-01-25T04:14:23.971Z,84.83
2019-01-25T04:16:57.467Z,84.31
2019-01-25T04:19:30.887Z,83.12
2019-01-25T04:22:03.476Z,83.12
2019-01-25T04:24:36.803Z,82.32
2019-01-25T04:27:09.332Z,81.21
2019-01-25T04:29:42.502Z,82.39
2019-01-25T04:32:15.860Z,83.92
2019-01-25T04:34:48.942Z,84.87
2019-01-25T04:37:22.224Z,85.46
2019-01-25T04:39:55.683Z,85.14
2019-01-25T04:42:29.565Z,82.92
2019-01-25T04:45:02.451Z,82.32
2019-01-25T04:47:34.832Z,83.28
2019-01-25T04:50:11.979Z,83.39
2019-01-25T04:52:45.308Z,82.17
2019-01-25T04:55:26.355Z,82.20
2019-01-25T04:58:28.411Z,81.88
2019-01-25T05:01:08.658Z,82.80
2019-01-25T05:03:41.687Z,83.39
2019-01-25T05:06:17.245Z,83.02
2019-01-25T05:08:50.893Z,83.16
2019-01-25T05:11:23.783Z,83.18
2019-01-25T05:13:58.679Z,83.13
2019-01-25T05:16:31.817Z,82.84
2019-01-25T05:19:05.219Z,83.27
2019-01-25T05:21:38.678Z,82.28
2019-01-25T05:24:12.424Z,83.42
2019-01-25T05:26:45.472Z,83.19
2019-01-25T05:29:22.994Z,81.30
2019-01-25T05:31:56.393Z,81.81
2019-01-25T05:34:29.832Z,82.04
2019-01-25T05:37:04.945Z,81.66
2019-01-25T05:39:37.821Z,82.36
2019-01-25T05:42:11.411Z,83.21
2019-01-25T05:44:43.558Z,81.59
2019-01-25T05:47:17.062Z,81.86
2019-01-25T05:49:50.371Z,83.26
2019-01-25T05:52:23.460Z,82.05
2019-01-25T05:54:56.023Z,81.86
2019-01-25T05:57:28.995Z,82.50
2019-01-25T06:00:06.863Z,82.71
2019-01-25T06:02:40.509Z,82.50
2019-01-25T06:05:14.036Z,80.39
2019-01-25T06:07:48.395Z,80.90
2019-01-25T06:10:21.422Z,78.20
2019-01-25T06:12:55.983Z,79.50
2019-01-25T06:15:28.998Z,78.97
2019-01-25T06:18:02.497Z,79.29
2019-01-25T06:20:35.437Z,79.43
2019-01-25T06:23:09.234Z,78.10
2019-01-25T06:25:42.680Z,77.74
2019-01-25T06:28:16.134Z,78.28
2019-01-25T06:30:50.271Z,77.55
2019-01-25T06:33:23.353Z,78.44
2019-01-25T06:35:56.750Z,78.89
2019-01-25T06:38:30.522Z,78.97
2019-01-25T06:41:04.873Z,79.08
2019-01-25T06:43:38.786Z,80.92
2019-01-25T06:46:11.831Z,79.22
2019-01-25T06:48:44.367Z,78.18
2019-01-25T06:51:17.882Z,78.03
2019-01-25T06:53:51.662Z,77.89
2019-01-25T06:56:25.371Z,77.36
2019-01-25T06:59:12.596Z,77.21
2019-01-25T07:02:05.122Z,77.81
2019-01-25T07:04:37.771Z,78.46
2019-01-25T07:07:34.258Z,77.51
2019-01-25T07:10:12.108Z,77.90
2019-01-25T07:12:45.881Z,78.48
2019-01-25T07:15:22.173Z,78.44
2019-01-25T07:17:55.620Z,78.82
2019-01-25T07:20:29.134Z,79.04
2019-01-25T07:23:02.393Z,76.47
2019-01-25T07:25:35.714Z,76.71
2019-01-25T07:28:08.393Z,78.00
2019-01-25T07:30:41.579Z,78.00
2019-01-25T07:33:14.680Z,78.58
2019-01-25T07:35:47.377Z,77.60
2019-01-25T07:38:20.951Z,77.50
2019-01-25T07:40:54.724Z,78.21
2019-01-25T07:43:28.001Z,77.44
2019-01-25T07:46:00.907Z,77.14
2019-01-25T07:48:34.366Z,76.41
2019-01-25T07:51:07.704Z,75.58
2019-01-25T07:53:41.173Z,77.57
2019-01-25T07:56:14.112Z,76.87
2019-01-25T07:58:49.583Z,76.98
2019-01-25T08:01:22.248Z,76.74
2019-01-25T08:03:55.553Z,76.46
2019-01-25T08:06:29.944Z,76.98
2019-01-25T08:09:04.898Z,76.57
2019-01-25T08:11:38.605Z,76.44
2019-01-25T08:14:12.863Z,76.50
2019-01-25T08:16:46.132Z,76.22
2019-01-25T08:19:19.519Z,76.65
2019-01-25T08:21:53.006Z,76.50
2019-01-25T08:24:25.769Z,76.94
2019-01-25T08:26:59.103Z,76.29
2019-01-25T08:29:31.974Z,76.49
2019-01-25T08:32:05.367Z,76.78
2019-01-25T08:34:38.861Z,77.01
2019-01-25T08:37:11.846Z,76.64
2019-01-25T08:39:45.029Z,77.05
2019-01-25T08:42:17.728Z,77.31
2019-01-25T08:44:50.513Z,77.07
2019-01-25T08:47:24.093Z,77.95
2019-01-25T08:49:58.017Z,77.27
2019-01-25T08:52:31.414Z,75.85
2019-01-25T08:55:05.242Z,76.25
2019-01-25T08:57:38.328Z,75.95
2019-01-25T09:00:16.729Z,75.50
2019-01-25T09:02:49.827Z,75.18
2019-01-25T09:05:23.347Z,74.84
2019-01-25T09:07:56.334Z,75.44
2019-01-25T09:10:29.821Z,76.91
2019-01-25T09:13:03.130Z,76.80
2019-01-25T09:15:36.767Z,76.95
2019-01-25T09:18:09.918Z,78.56
2019-01-25T09:20:42.558Z,78.70
2019-01-25T09:23:15.951Z,78.39
2019-01-25T09:25:50.239Z,78.98
2019-01-25T09:28:23.254Z,78.20
2019-01-25T09:30:57.182Z,78.45
2019-01-25T09:33:29.865Z,77.96
2019-01-25T09:36:02.845Z,78.21
2019-01-25T09:38:36.246Z,78.49
2019-01-25T09:41:09.345Z,80.37
2019-01-25T09:43:42.421Z,79.98
2019-01-25T09:46:15.401Z,81.58
2019-01-25T09:48:49.027Z,80.99
2019-01-25T09:51:22.093Z,80.65
2019-01-25T09:53:54.982Z,79.36
2019-01-25T09:56:27.985Z,79.40
2019-01-25T09:59:00.961Z,79.32
2019-01-25T10:01:34.070Z,77.38
2019-01-25T10:04:07.678Z,79.14
2019-01-25T10:06:40.632Z,80.40
2019-01-25T10:09:14.375Z,80.95
2019-01-25T10:11:47.784Z,79.62
2019-01-25T10:14:20.637Z,81.30
2019-01-25T10:16:53.814Z,83.20
2019-01-25T10:19:26.500Z,83.72
2019-01-25T10:22:00.009Z,83.67
2019-01-25T10:24:33.107Z,83.93
2019-01-25T10:27:06.124Z,86.03
2019-01-25T10:29:39.497Z,85.25
2019-01-25T10:32:13.273Z,85.53
2019-01-25T10:34:46.787Z,86.08
2019-01-25T10:37:20.352Z,85.58
2019-01-25T10:39:53.262Z,84.87
2019-01-25T10:42:26.417Z,86.13
2019-01-25T10:45:04.278Z,85.26
2019-01-25T10:47:35.234Z,86.09
2019-01-25T10:50:08.438Z,87.16
2019-01-25T10:52:41.898Z,87.72
2019-01-25T10:55:15.889Z,86.46
2019-01-25T10:57:48.490Z,88.18
2019-01-25T11:00:21.472Z,87.27
2019-01-25T11:02:58.413Z,88.61
2019-01-25T11:05:29.029Z,88.74
2019-01-25T11:08:01.879Z,89.20
2019-01-25T11:10:34.858Z,88.94
2019-01-25T11:13:08.357Z,88.33
2019-01-25T11:15:41.546Z,87.97
2019-01-25T11:18:14.647Z,86.29
2019-01-25T11:20:48.152Z,87.59
2019-01-25T11:23:20.812Z,88.56
2019-01-25T11:25:55.386Z,85.26
2019-01-25T11:28:28.852Z,85.97
2019-01-25T11:31:01.934Z,86.08
2019-01-25T11:33:34.915Z,86.70
2019-01-25T11:36:08.453Z,88.33
2019-01-25T11:38:42.322Z,90.75
2019-01-25T11:41:16.127Z,90.65
2019-01-25T11:43:49.953Z,92.09
2019-01-25T11:46:23.365Z,89.83
2019-01-25T11:48:56.410Z,90.23
2019-01-25T11:51:29.689Z,91.58
2019-01-25T11:54:02.993Z,92.68
2019-01-25T11:56:35.613Z,92.45
2019-01-25T11:59:09.173Z,92.15
2019-01-25T12:01:42.370Z,94.34
2019-01-25T12:04:15.695Z,95.09
2019-01-25T12:06:49.185Z,95.32
2019-01-25T12:09:22.242Z,95.92
2019-01-25T12:11:56.016Z,95.02
2019-01-25T12:14:28.719Z,93.74
2019-01-25T12:17:01.641Z,92.21
2019-01-25T12:19:34.289Z,90.90
2019-01-25T12:22:07.316Z,90.72
2019-01-25T12:24:40.926Z,91.69
2019-01-25T12:27:13.610Z,92.27
2019-01-25T12:29:46.497Z,91.77
2019-01-25T12:32:19.985Z,91.84
2019-01-25T12:34:53.472Z,92.02
2019-01-25T12:37:26.602Z,92.77
2019-01-25T12:40:00.506Z,91.90
2019-01-25T12:42:34.002Z,93.11
2019-01-25T12:45:09.689Z,92.12
2019-01-25T12:47:44.160Z,91.74
2019-01-25T12:50:20.374Z,91.32
2019-01-25T12:52:53.510Z,91.94
2019-01-25T12:55:27.083Z,93.73
2019-01-25T12:58:01.031Z,95.85
2019-01-25T13:00:40.039Z,96.98
2019-01-25T13:03:13.962Z,97.01
2019-01-25T13:05:47.191Z,97.55
2019-01-25T13:08:21.050Z,96.44
2019-01-25T13:10:54.555Z,96.11
2019-01-25T13:13:31.740Z,97.16
2019-01-25T13:16:02.984Z,98.19
2019-01-25T13:18:36.840Z,99.49
2019-01-25T13:21:09.475Z,99.94
2019-01-25T13:23:43.134Z,100.00
2019-01-25T13:26:16.484Z,100.00
2019-01-25T13:28:49.877Z,100.00
2019-01-25T13:31:22.952Z,100.00
2019-01-25T13:33:55.942Z,100.00
2019-01-25T13:36:28.756Z,100.00
2019-01-25T13:39:02.148Z,100.00
2019-01-25T13:41:36.983Z,100.00
2019-01-25T13:44:10.648Z,100.00
2019-01-25T13:46:43.803Z,100.00
2019-01-25T13:49:17.833Z,100.00
2019-01-25T13:51:50.459Z,100.00
2019-01-25T13:54:23.561Z,100.00
2019-01-25T13:56:57.419Z,100.00
2019-01-25T13:59:30.950Z,100.00
2019-01-25T14:02:03.873Z,100.00
2019-01-25T14:04:36.769Z,100.00
2019-01-25T14:07:09.940Z,100.00
2019-01-25T14:09:43.092Z,100.00
2019-01-25T14:12:17.013Z,100.00
2019-01-25T14:14:50.196Z,100.00
2019-01-25T14:17:23.813Z,100.00
2019-01-25T14:19:57.071Z,100.00
2019-01-25T14:22:30.449Z,100.00
2019-01-25T14:25:04.531Z,100.00
2019-01-25T14:27:37.708Z,100.00
2019-01-25T14:30:19.768Z,100.00
2019-01-25T14:32:53.623Z,100.00
2019-01-25T14:35:27.222Z,100.00
2019-01-25T14:38:00.803Z,100.00
2019-01-25T14:40:34.228Z,100.00
2019-01-25T14:43:07.475Z,100.00
2019-01-25T14:45:40.589Z,100.00
2019-01-25T14:48:14.864Z,100.00
2019-01-25T14:50:48.441Z,100.00
2019-01-25T14:53:22.245Z,100.00
2019-01-25T14:55:55.485Z,100.00
2019-01-25T14:58:28.939Z,100.00
2019-01-25T15:01:03.880Z,100.00
2019-01-25T15:03:38.483Z,100.00
2019-01-25T15:06:11.544Z,100.00
2019-01-25T15:08:44.776Z,100.00
2019-01-25T15:11:17.082Z,100.00
2019-01-25T15:13:50.102Z,100.00
2019-01-25T15:16:23.088Z,100.00
2019-01-25T15:18:56.463Z,100.00
2019-01-25T15:21:29.072Z,100.00
2019-01-25T15:24:03.102Z,100.00
2019-01-25T15:26:36.473Z,100.00
2019-01-25T15:29:10.252Z,100.00
2019-01-25T15:31:43.073Z,100.00
2019-01-25T15:34:16.149Z,100.00
2019-01-25T15:36:49.765Z,100.00
2019-01-25T15:39:23.703Z,100.00
2019-01-25T15:41:57.614Z,100.00
2019-01-25T15:44:31.454Z,100.00
2019-01-25T15:47:04.979Z,100.00
2019-01-25T15:49:38.277Z,100.00
2019-01-25T15:52:11.661Z,100.00
2019-01-25T15:54:45.278Z,100.00
2019-01-25T15:57:18.970Z,100.00
2019-01-25T15:59:51.760Z,100.00
2019-01-25T16:02:24.870Z,100.00
2019-01-25T16:04:58.893Z,100.00
2019-01-25T16:07:32.006Z,100.00
2019-01-25T16:10:06.903Z,100.00
2019-01-25T22:00:55.226Z,100.00
2019-01-25T22:03:27.896Z,100.00
2019-01-25T22:06:00.953Z,100.00
2019-01-25T22:08:35.123Z,100.00
2019-01-25T22:11:09.088Z,100.00
2019-01-25T22:13:41.813Z,100.00
2019-01-25T22:16:14.927Z,100.00
2019-01-25T22:18:48.357Z,100.00
2019-01-25T22:21:21.698Z,100.00
2019-01-25T22:23:55.588Z,100.00
2019-01-25T22:26:28.308Z,100.00
2019-01-25T22:29:02.282Z,100.00
2019-01-25T22:31:35.845Z,100.00
2019-01-25T22:34:08.495Z,100.00
2019-01-25T22:36:42.592Z,100.00
2019-01-25T22:39:16.079Z,100.00
2019-01-25T22:41:49.359Z,100.00
2019-01-25T22:44:23.266Z,100.00
2019-01-25T22:46:57.115Z,100.00
2019-01-25T22:49:29.690Z,100.00
2019-01-25T22:52:02.673Z,100.00
2019-01-25T22:54:36.186Z,100.00
2019-01-25T22:57:09.258Z,100.00
2019-01-25T22:59:42.589Z,100.00
2019-01-25T23:02:15.946Z,100.00
2019-01-25T23:05:33.400Z,100.00
2019-01-25T23:08:06.615Z,100.00
2019-01-25T23:10:41.673Z,100.00
2019-01-25T23:13:15.051Z,100.00
2019-01-25T23:15:48.500Z,100.00
2019-01-25T23:18:22.050Z,100.00
2019-01-25T23:20:55.818Z,100.00
2019-01-25T23:23:29.018Z,100.00
2019-01-25T23:26:02.199Z,100.00
2019-01-25T23:28:34.847Z,100.00
2019-01-25T23:31:08.062Z,100.00
2019-01-25T23:33:41.143Z,100.00
2019-01-25T23:36:14.057Z,100.00
2019-01-25T23:38:48.319Z,100.00
2019-01-25T23:41:23.527Z,100.00
2019-01-25T23:43:57.770Z,100.00
2019-01-25T23:46:33.754Z,100.00
2019-01-25T23:49:06.421Z,100.00
2019-01-25T23:51:40.050Z,100.00
2019-01-25T23:54:14.244Z,100.00
2019-01-25T23:56:47.587Z,100.00
2019-01-25T23:59:20.662Z,100.00
